sensor_id;sensor_type;location;lat;lon;timestamp;pressure;altitude;pressure_sealevel;temperature
49557;BMP280;35462;45.048;7.666;2024-03-02T00:00:28;97982.28;;;9.26
49557;BMP280;35462;45.048;7.666;2024-03-02T00:15:40;97983.19;;;9.32
49557;BMP280;35462;45.048;7.666;2024-03-02T00:30:51;97997.06;;;9.49
49557;BMP280;35462;45.048;7.666;2024-03-02T00:45:56;97989.34;;;9.42
49557;BMP280;35462;45.048;7.666;2024-03-02T01:00:59;97989.34;;;9.42
49557;BMP280;35462;45.048;7.666;2024-03-02T01:16:02;97993.06;;;9.44
49557;BMP280;35462;45.048;7.666;2024-03-02T01:31:06;97997.94;;;9.46
49557;BMP280;35462;45.048;7.666;2024-03-02T01:46:08;97985.38;;;9.46
49557;BMP280;35462;45.048;7.666;2024-03-02T02:01:11;97987.44;;;9.42
49557;BMP280;35462;45.048;7.666;2024-03-02T02:16:14;97982.53;;;9.41
49557;BMP280;35462;45.048;7.666;2024-03-02T02:31:16;97968.22;;;9.38
49557;BMP280;35462;45.048;7.666;2024-03-02T02:46:19;97955.25;;;9.40
49557;BMP280;35462;45.048;7.666;2024-03-02T03:01:21;97940.94;;;9.38
49557;BMP280;35462;45.048;7.666;2024-03-02T03:16:24;97942.28;;;9.42
49557;BMP280;35462;45.048;7.666;2024-03-02T03:31:26;97940.06;;;9.41
49557;BMP280;35462;45.048;7.666;2024-03-02T03:46:29;97945.38;;;9.41
49557;BMP280;35462;45.048;7.666;2024-03-02T04:01:31;97949.84;;;9.44
49557;BMP280;35462;45.048;7.666;2024-03-02T04:16:34;97941.88;;;9.44
49557;BMP280;35462;45.048;7.666;2024-03-02T04:31:36;97954.50;;;9.40
49557;BMP280;35462;45.048;7.666;2024-03-02T04:46:39;97949.63;;;9.38
49557;BMP280;35462;45.048;7.666;2024-03-02T05:01:41;97971.38;;;9.46
49557;BMP280;35462;45.048;7.666;2024-03-02T05:16:44;97987.03;;;9.44
49557;BMP280;35462;45.048;7.666;2024-03-02T05:31:47;98000.91;;;9.48
49557;BMP280;35462;45.048;7.666;2024-03-02T05:46:49;98008.06;;;9.26
49557;BMP280;35462;45.048;7.666;2024-03-02T06:01:52;98014.50;;;8.78
49557;BMP280;35462;45.048;7.666;2024-03-02T06:16:54;98037.66;;;9.03
49557;BMP280;35462;45.048;7.666;2024-03-02T06:31:57;98042.34;;;9.33
49557;BMP280;35462;45.048;7.666;2024-03-02T06:46:59;98069.16;;;9.47
49557;BMP280;35462;45.048;7.666;2024-03-02T07:02:02;98062.34;;;9.59
49557;BMP280;35462;45.048;7.666;2024-03-02T07:17:04;98069.75;;;9.76
49557;BMP280;35462;45.048;7.666;2024-03-02T07:32:08;98068.56;;;9.98
49557;BMP280;35462;45.048;7.666;2024-03-02T07:47:11;98085.75;;;10.28
49557;BMP280;35462;45.048;7.666;2024-03-02T08:02:14;98089.81;;;10.41
49557;BMP280;35462;45.048;7.666;2024-03-02T08:17:16;98094.69;;;10.73
49557;BMP280;35462;45.048;7.666;2024-03-02T08:32:19;98115.22;;;10.63
49557;BMP280;35462;45.048;7.666;2024-03-02T08:47:22;98133.75;;;10.24
49557;BMP280;35462;45.048;7.666;2024-03-02T09:02:24;98155.25;;;10.39
49557;BMP280;35462;45.048;7.666;2024-03-02T09:17:27;98149.97;;;10.69
49557;BMP280;35462;45.048;7.666;2024-03-02T09:32:29;98153.56;;;11.53
49557;BMP280;35462;45.048;7.666;2024-03-02T09:47:33;98147.66;;;12.12
49557;BMP280;35462;45.048;7.666;2024-03-02T10:02:36;98135.47;;;12.88
49557;BMP280;35462;45.048;7.666;2024-03-02T10:17:38;98139.63;;;12.89
49557;BMP280;35462;45.048;7.666;2024-03-02T10:32:40;98146.16;;;11.66
49557;BMP280;35462;45.048;7.666;2024-03-02T10:47:43;98159.47;;;11.66
49557;BMP280;35462;45.048;7.666;2024-03-02T11:02:50;98149.63;;;11.28
49557;BMP280;35462;45.048;7.666;2024-03-02T11:17:54;98144.06;;;11.43
49557;BMP280;35462;45.048;7.666;2024-03-02T11:32:57;98121.41;;;11.48
49557;BMP280;35462;45.048;7.666;2024-03-02T11:48:00;98097.88;;;11.55
49557;BMP280;35462;45.048;7.666;2024-03-02T12:03:04;98083.97;;;11.51
49557;BMP280;35462;45.048;7.666;2024-03-02T12:18:07;98069.94;;;11.42
49557;BMP280;35462;45.048;7.666;2024-03-02T12:33:11;98057.94;;;10.80
49557;BMP280;35462;45.048;7.666;2024-03-02T12:48:13;98036.28;;;11.27
49557;BMP280;35462;45.048;7.666;2024-03-02T13:03:19;98020.72;;;11.97
49557;BMP280;35462;45.048;7.666;2024-03-02T13:18:24;97984.22;;;11.61
49557;BMP280;35462;45.048;7.666;2024-03-02T13:33:28;97969.25;;;12.23
49557;BMP280;35462;45.048;7.666;2024-03-02T13:48:32;97985.78;;;11.86
49557;BMP280;35462;45.048;7.666;2024-03-02T14:03:35;97983.88;;;11.86
49557;BMP280;35462;45.048;7.666;2024-03-02T14:18:38;97971.13;;;11.90
49557;BMP280;35462;45.048;7.666;2024-03-02T14:33:40;97985.34;;;12.28
49557;BMP280;35462;45.048;7.666;2024-03-02T14:48:43;97963.78;;;12.50
49557;BMP280;35462;45.048;7.666;2024-03-02T15:03:46;97954.72;;;12.24
49557;BMP280;35462;45.048;7.666;2024-03-02T15:18:49;97945.50;;;11.43
49557;BMP280;35462;45.048;7.666;2024-03-02T15:33:51;97942.66;;;11.28
49557;BMP280;35462;45.048;7.666;2024-03-02T15:48:55;97928.00;;;11.33
49557;BMP280;35462;45.048;7.666;2024-03-02T16:03:59;97918.69;;;11.19
49557;BMP280;35462;45.048;7.666;2024-03-02T16:19:04;97909.31;;;10.61
49557;BMP280;35462;45.048;7.666;2024-03-02T16:34:07;97911.84;;;10.47
49557;BMP280;35462;45.048;7.666;2024-03-02T16:49:10;97906.63;;;10.43
49557;BMP280;35462;45.048;7.666;2024-03-02T17:04:13;97919.78;;;9.98
49557;BMP280;35462;45.048;7.666;2024-03-02T17:19:15;97911.09;;;9.76
49557;BMP280;35462;45.048;7.666;2024-03-02T17:34:18;97908.78;;;9.87
49557;BMP280;35462;45.048;7.666;2024-03-02T17:49:20;97900.91;;;9.75
49557;BMP280;35462;45.048;7.666;2024-03-02T18:04:23;97911.88;;;9.86
49557;BMP280;35462;45.048;7.666;2024-03-02T18:19:26;97887.00;;;9.71
49557;BMP280;35462;45.048;7.666;2024-03-02T18:34:31;97922.72;;;9.70
49557;BMP280;35462;45.048;7.666;2024-03-02T18:49:34;97921.41;;;9.74
49557;BMP280;35462;45.048;7.666;2024-03-02T19:04:36;97916.88;;;9.75
49557;BMP280;35462;45.048;7.666;2024-03-02T19:19:39;97902.22;;;9.70
49557;BMP280;35462;45.048;7.666;2024-03-02T19:34:41;97903.50;;;9.66
49557;BMP280;35462;45.048;7.666;2024-03-02T19:49:44;97902.25;;;9.58
49557;BMP280;35462;45.048;7.666;2024-03-02T20:04:47;97921.34;;;9.65
49557;BMP280;35462;45.048;7.666;2024-03-02T20:19:49;97923.47;;;9.70
49557;BMP280;35462;45.048;7.666;2024-03-02T20:34:52;97920.34;;;9.42
49557;BMP280;35462;45.048;7.666;2024-03-02T20:49:54;97917.06;;;9.38
49557;BMP280;35462;45.048;7.666;2024-03-02T21:04:57;97933.72;;;9.60
49557;BMP280;35462;45.048;7.666;2024-03-02T21:20:00;97892.75;;;9.27
49557;BMP280;35462;45.048;7.666;2024-03-02T21:35:04;97866.31;;;9.36
49557;BMP280;35462;45.048;7.666;2024-03-02T21:50:07;97882.28;;;9.45
49557;BMP280;35462;45.048;7.666;2024-03-02T22:05:10;97865.88;;;9.37
49557;BMP280;35462;45.048;7.666;2024-03-02T22:20:13;97861.56;;;9.31
49557;BMP280;35462;45.048;7.666;2024-03-02T22:35:16;97881.72;;;9.50
49557;BMP280;35462;45.048;7.666;2024-03-02T22:50:18;97859.31;;;9.51
49557;BMP280;35462;45.048;7.666;2024-03-02T23:05:22;97859.50;;;9.35
49557;BMP280;35462;45.048;7.666;2024-03-02T23:20:25;97860.56;;;9.16
49557;BMP280;35462;45.048;7.666;2024-03-02T23:35:28;97867.88;;;9.12
49557;BMP280;35462;45.048;7.666;2024-03-02T23:50:30;97864.94;;;8.17
